Here is the Quick Look data you requested

The Data originates at the National Weather Service, and is made available here by the UAlbany Department of Atmospheric and Environmental Sciences

Surface Observations

KDTW 142353Z 35008KT 10SM FEW050 BKN160 OVC230 28/19 A3001 RMK AO2 SLP155
 T02780189 10317 20278 56014=
KDTW 150053Z 32007KT 10SM SCT050 BKN160 OVC230 27/19 A3003 RMK AO2 SLP163
 T02720189=
KDTW 150153Z 33005KT 10SM SCT050 BKN160 OVC220 27/18 A3004 RMK AO2 SLP167
 T02670183=
KDTW 150253Z 00000KT 10SM SCT050 SCT160 OVC220 26/18 A3004 RMK AO2 SLP166
 T02560183 50010=
KDTW 150353Z 35003KT 10SM FEW050 OVC100 26/18 A3004 RMK AO2 SLP167 T02610183=
KDTW 150453Z 35003KT 10SM FEW060 OVC100 26/19 A3004 RMK AO2 SLP166 T02560189
 403170222=
KDTW 150553Z 00000KT 9SM FEW050 OVC100 26/19 A3003 RMK AO2 SLP164 T02560194
 10278 20250 58002=
KDTW 150653Z 00000KT 8SM SCT050 OVC110 26/19 A3003 RMK AO2 SLP165 T02560194=
KDTW 150753Z 00000KT 8SM SCT050 OVC100 24/19 A3003 RMK AO2 SLP163 T02440194=
KDTW 150853Z 34003KT 8SM BKN055 BKN100 24/19 A3003 RMK AO2 SLP164 T02440194
 55000=
KDTW 150953Z 00000KT 7SM BKN040 BKN140 24/19 A3004 RMK AO2 SLP166 T02390194=
KDTW 151053Z 00000KT 7SM SCT040 BKN140 24/20 A3003 RMK AO2 SLP165 T02440200=
KDTW 151153Z 00000KT 7SM FEW040 FEW140 26/20 A3003 RMK AO2 SLP164 T02610200
 10261 20233 50000=
KDTW 151253Z 00000KT 10SM FEW040 SCT140 27/20 A3003 RMK AO2 SLP163 T02720200=
KDTW 151353Z 00000KT 10SM FEW040 29/20 A3002 RMK AO2 SLP159 T02940200=
KDTW 151453Z 26003KT 10SM SCT035 30/20 A3001 RMK AO2 SLP158 T03000200 58006=
KDTW 151553Z 21003KT 10SM BKN040 30/19 A3001 RMK AO2 SLP156 T03000194=
KDTW 151653Z 19006KT 10SM BKN040 32/20 A3000 RMK AO2 SLP152 T03170200=
KDTW 151753Z VRB05KT 10SM BKN055 32/20 A3000 RMK AO2 SLP152 T03220200 10328
 20261 56005=
KDTW 151853Z 20005KT 10SM SCT055 SCT180 33/21 A2998 RMK AO2 SLP146 T03280206=
KDTW 151953Z 17008KT 10SM FEW045 SCT060 33/21 A2997 RMK AO2 SLP143 T03280206=
KDTW 152053Z 10SM FEW050 34/20 A2995 RMK AO2 SLP136 T03390200 58015=
KDTW 152053Z COR 19005KT 10SM FEW050 BKN160 34/20 A2995 RMK AO2 SLP136
 T03390200 58015=
KDTW 152153Z 19006KT 10SM FEW050 BKN160 32/20 A2994 RMK AO2 SLP132 T03220200=
KDTW 152253Z 17009KT 10SM FEW050 BKN160 32/21 A2993 RMK AO2 SLP129 T03220211=
KDTW 152353Z 13006KT 10SM SCT050 BKN160 31/21 A2994 RMK AO2 LTG DSNT N AND NE
 SLP132 T03060211 10344 20306 55005=
KDTW 160053Z 08005KT 10SM BKN060 BKN160 29/20 A2995 RMK AO2 LTG DSNT NE SLP137
 T02940200=
KDTW 160153Z 00000KT 10SM BKN060 BKN160 28/21 A2997 RMK AO2 LTG DSNT N AND E
 SLP142 OCNL LTGIC DSNT N-NE CB DSNT N-NE MOV NE T02780206=
KDTW 160210Z 26009KT 10SM -TSRA FEW050 BKN060CB BKN100 27/21 A2998 RMK AO2
 RAB05 TSB07 OCNL LTGICCG N-NE TS N-NE MOV NE P0000 T02720211=
KDTW 160237Z 10006KT 3SM HZ SCT050 BKN065 OVC100 26/22 A2996 RMK AO2 TWR VIS 4
 OCNL LTGIC DSNT N-NE RAB05 TSB07E31 TS MOV NE CB DSNT N-NE MOV NE P0029
 T02610217=
KDTW 160253Z 12004KT 7SM -RA SCT050 BKN065 OVC100 26/22 A2996 RMK AO2 SLP140
 OCNL LTGIC DSNT N-NE RAB05E39B45 TSB07E31 TS MOV NE CB DSNT N-NE MOV NE P0029
 60029 T02560222 50008=
KDTW 160353Z 13004KT 7SM FEW050 SCT065 BKN140 26/22 A2996 RMK AO2 RAE0256
 SLP139 P0000 T02610217=
KDTW 160453Z 17004KT 6SM HZ SCT060 BKN140 BKN230 26/22 A2995 RMK AO2 SLP137
 T02560222 403440233=
KDTW 160553Z 16004KT 7SM SCT140 BKN230 26/22 A2995 RMK AO2 SLP134 60029
 T02560217 10306 20250 58005=
KDTW 160653Z 20005KT 7SM SCT140 BKN230 25/21 A2995 RMK AO2 SLP135 T02500206=
KDTW 160753Z 18004KT 7SM SCT130 BKN230 24/20 A2995 RMK AO2 SLP136 T02390200=
KDTW 160853Z 20006KT 7SM SCT130 BKN230 24/20 A2993 RMK AO2 SLP130 T02390200
 58004=
KDTW 160953Z 20007KT 7SM SCT120 BKN230 23/20 A2993 RMK AO2 SLP129 T02330200=
KDTW 161053Z 21006KT 6SM HZ SCT120 BKN230 23/20 A2994 RMK AO2 SLP133 T02330200=
KDTW 161153Z 23009KT 6SM HZ FEW085 BKN140 BKN230 23/20 A2995 RMK AO2 SLP135
 70029 T02330200 10261 20233 53004=